createdAt,value
2019-01-08T00:01:37.517Z,90.50
2019-01-08T00:04:07.536Z,90.30
2019-01-08T00:06:37.149Z,90.10
2019-01-08T00:09:06.950Z,90.00
2019-01-08T00:11:36.873Z,89.50
2019-01-08T00:14:06.540Z,89.80
2019-01-08T00:16:36.156Z,89.80
2019-01-08T00:19:05.845Z,90.00
2019-01-08T00:21:35.858Z,90.10
2019-01-08T00:24:05.762Z,90.10
2019-01-08T00:26:35.522Z,90.10
2019-01-08T00:29:05.273Z,90.00
2019-01-08T00:31:34.976Z,90.10
2019-01-08T00:34:04.652Z,90.00
2019-01-08T00:36:34.413Z,89.40
2019-01-08T00:39:04.530Z,89.60
2019-01-08T00:41:34.402Z,90.00
2019-01-08T00:44:04.583Z,89.70
2019-01-08T00:46:34.616Z,90.00
2019-01-08T00:49:04.593Z,89.60
2019-01-08T00:51:34.515Z,89.50
2019-01-08T00:54:04.178Z,89.10
2019-01-08T00:56:34.114Z,89.60
2019-01-08T00:59:03.996Z,89.00
2019-01-08T01:01:33.697Z,88.50
2019-01-08T01:04:03.692Z,89.10
2019-01-08T01:06:33.639Z,89.30
2019-01-08T01:09:05.067Z,88.90
2019-01-08T01:11:34.801Z,88.70
2019-01-08T01:14:04.641Z,88.50
2019-01-08T01:16:34.583Z,88.30
2019-01-08T01:19:04.806Z,88.40
2019-01-08T01:21:34.493Z,88.30
2019-01-08T01:24:04.301Z,88.20
2019-01-08T01:26:34.069Z,87.00
2019-01-08T01:29:03.795Z,87.40
2019-01-08T01:31:33.433Z,87.90
2019-01-08T01:34:04.368Z,86.90
2019-01-08T01:36:34.030Z,87.40
2019-01-08T01:39:07.561Z,86.80
2019-01-08T01:41:37.216Z,87.00
2019-01-08T01:44:06.995Z,87.40
2019-01-08T01:46:36.663Z,87.40
2019-01-08T01:49:06.688Z,87.60
2019-01-08T01:51:36.334Z,87.30
2019-01-08T01:54:06.201Z,87.50
2019-01-08T01:56:36.030Z,87.30
2019-01-08T01:59:08.533Z,87.40
2019-01-08T02:01:37.296Z,86.40
2019-01-08T02:04:06.959Z,87.20
2019-01-08T02:06:36.644Z,86.70
2019-01-08T02:09:06.917Z,87.20
2019-01-08T02:11:36.578Z,87.60
2019-01-08T02:14:06.536Z,87.60
2019-01-08T02:16:36.280Z,87.30
2019-01-08T02:19:05.936Z,86.80
2019-01-08T02:21:35.737Z,87.10
2019-01-08T02:24:05.488Z,86.90
2019-01-08T02:26:35.244Z,87.30
2019-01-08T02:29:04.966Z,87.10
2019-01-08T02:31:35.030Z,86.70
2019-01-08T02:34:04.977Z,87.10
2019-01-08T02:36:34.587Z,87.50
2019-01-08T02:39:05.749Z,87.70
2019-01-08T02:41:35.474Z,86.60
2019-01-08T02:44:05.570Z,86.00
2019-01-08T02:46:35.425Z,86.60
2019-01-08T02:49:05.335Z,85.70
2019-01-08T02:51:34.950Z,86.00
2019-01-08T02:54:04.930Z,86.70
2019-01-08T02:56:34.599Z,87.40
2019-01-08T02:59:04.347Z,88.30
2019-01-08T03:01:33.944Z,88.40
2019-01-08T03:04:03.636Z,88.90
2019-01-08T03:06:33.550Z,89.00
2019-01-08T03:09:04.763Z,89.50
2019-01-08T03:11:35.440Z,89.40
2019-01-08T03:14:05.060Z,89.70
2019-01-08T03:16:34.673Z,89.60
2019-01-08T03:19:04.393Z,89.50
2019-01-08T03:21:33.984Z,89.90
2019-01-08T03:24:03.635Z,90.00
2019-01-08T03:26:33.250Z,90.00
2019-01-08T03:29:02.864Z,90.00
2019-01-08T03:31:32.462Z,90.00
2019-01-08T03:34:02.124Z,90.10
2019-01-08T03:36:31.729Z,90.10
2019-01-08T03:39:01.357Z,90.10
2019-01-08T03:41:32.914Z,90.00
2019-01-08T03:44:02.525Z,90.20
2019-01-08T03:46:32.138Z,90.40
2019-01-08T03:49:01.758Z,90.60
2019-01-08T03:51:31.469Z,90.70
2019-01-08T03:54:01.163Z,91.10
2019-01-08T03:56:30.914Z,91.30
2019-01-08T03:59:00.859Z,91.40
2019-01-08T04:01:30.510Z,91.20
2019-01-08T04:04:00.240Z,90.90
2019-01-08T04:06:30.275Z,91.20
2019-01-08T04:09:00.069Z,91.00
2019-01-08T04:11:29.967Z,91.10
2019-01-08T04:13:59.881Z,91.10
2019-01-08T04:16:29.614Z,91.50
2019-01-08T04:18:59.523Z,91.00
2019-01-08T04:21:29.207Z,90.90
2019-01-08T04:23:58.939Z,91.20
2019-01-08T04:26:28.861Z,91.70
2019-01-08T04:28:58.548Z,91.70
2019-01-08T04:31:28.195Z,91.50
2019-01-08T04:33:57.881Z,91.80
2019-01-08T04:36:27.801Z,91.60
2019-01-08T04:38:57.492Z,91.60
2019-01-08T04:41:27.148Z,91.40
2019-01-08T04:43:56.817Z,91.70
2019-01-08T04:46:26.484Z,91.40
2019-01-08T04:48:56.472Z,91.60
2019-01-08T04:51:26.596Z,91.40
2019-01-08T04:53:56.289Z,91.50
2019-01-08T04:56:26.052Z,91.60
2019-01-08T04:58:56.018Z,91.80
2019-01-08T05:01:25.919Z,91.70
2019-01-08T05:03:55.767Z,91.50
2019-01-08T05:06:25.478Z,91.80
2019-01-08T05:08:55.147Z,91.80
2019-01-08T05:11:24.809Z,92.00
2019-01-08T05:13:54.704Z,92.00
2019-01-08T05:16:24.650Z,91.90
2019-01-08T05:18:54.537Z,92.00
2019-01-08T05:21:24.544Z,91.80
2019-01-08T05:23:54.275Z,91.90
2019-01-08T05:26:24.118Z,91.70
2019-01-08T05:28:54.111Z,91.90
2019-01-08T05:31:23.921Z,92.00
2019-01-08T05:33:53.631Z,92.10
2019-01-08T05:36:23.286Z,92.10
2019-01-08T05:38:53.033Z,92.20
2019-01-08T05:41:22.636Z,92.40
2019-01-08T05:43:53.382Z,92.70
2019-01-08T05:46:23.277Z,92.70
2019-01-08T05:48:53.199Z,92.60
2019-01-08T05:51:22.848Z,92.50
2019-01-08T05:53:52.861Z,92.50
2019-01-08T05:56:22.562Z,92.60
2019-01-08T05:58:52.356Z,92.70
2019-01-08T06:01:22.352Z,92.80
2019-01-08T06:03:51.970Z,92.50
2019-01-08T06:06:21.577Z,92.30
2019-01-08T06:08:53.127Z,92.50
2019-01-08T06:11:22.509Z,92.60
2019-01-08T06:13:52.514Z,92.20
2019-01-08T06:16:22.493Z,92.50
2019-01-08T06:18:52.418Z,92.50
2019-01-08T06:21:22.289Z,92.50
2019-01-08T06:23:51.898Z,92.70
2019-01-08T06:26:21.510Z,92.70
2019-01-08T06:28:51.462Z,92.70
2019-01-08T06:31:22.691Z,92.60
2019-01-08T06:33:52.606Z,92.50
2019-01-08T06:36:22.593Z,92.30
2019-01-08T06:38:52.216Z,92.60
2019-01-08T06:41:22.431Z,92.60
2019-01-08T06:43:52.378Z,92.60
2019-01-08T06:46:21.983Z,92.80
2019-01-08T06:48:51.597Z,92.90
2019-01-08T06:51:21.442Z,92.60
2019-01-08T06:53:51.284Z,92.90
2019-01-08T06:56:22.158Z,93.00
2019-01-08T06:58:51.910Z,93.10
2019-01-08T07:01:21.613Z,93.00
2019-01-08T07:03:51.265Z,92.90
2019-01-08T07:06:21.044Z,92.90
2019-01-08T07:08:50.750Z,92.80
2019-01-08T07:11:20.357Z,92.70
2019-01-08T07:13:51.352Z,92.50
2019-01-08T07:16:21.201Z,92.50
2019-01-08T07:18:50.817Z,92.60
2019-01-08T07:21:20.447Z,92.70
2019-01-08T07:23:50.065Z,92.60
2019-01-08T07:26:20.009Z,92.60
2019-01-08T07:28:49.626Z,92.70
2019-01-08T07:31:19.536Z,92.60
2019-01-08T07:33:49.148Z,92.60
2019-01-08T07:36:18.763Z,92.70
2019-01-08T07:38:48.364Z,92.80
2019-01-08T07:41:18.244Z,93.20
2019-01-08T07:43:48.198Z,93.40
2019-01-08T07:46:17.808Z,93.10
2019-01-08T07:48:47.417Z,93.30
2019-01-08T07:51:17.089Z,93.20
2019-01-08T07:53:47.044Z,93.30
2019-01-08T07:56:16.702Z,93.10
2019-01-08T07:58:46.561Z,93.30
2019-01-08T08:01:16.176Z,93.20
2019-01-08T08:03:46.168Z,93.30
2019-01-08T08:06:16.031Z,93.30
2019-01-08T08:08:45.633Z,93.60
2019-01-08T08:11:15.570Z,93.80
2019-01-08T08:13:45.152Z,93.80
2019-01-08T08:16:14.777Z,93.50
2019-01-08T08:18:45.030Z,93.60
2019-01-08T08:21:14.654Z,93.40
2019-01-08T08:23:44.261Z,93.40
2019-01-08T08:26:14.437Z,93.10
2019-01-08T08:28:44.133Z,93.10
2019-01-08T08:31:13.755Z,92.70
2019-01-08T08:33:43.377Z,92.70
2019-01-08T08:36:12.997Z,92.80
2019-01-08T08:38:42.718Z,92.50
2019-01-08T08:41:12.334Z,92.70
2019-01-08T08:43:42.196Z,92.70
2019-01-08T08:46:11.819Z,92.60
2019-01-08T08:48:41.740Z,92.70
2019-01-08T08:51:11.449Z,92.90
2019-01-08T08:53:41.280Z,93.00
2019-01-08T08:56:11.265Z,93.00
2019-01-08T08:58:41.097Z,93.10
2019-01-08T09:01:11.106Z,93.00
2019-01-08T09:03:40.724Z,93.20
2019-01-08T09:06:10.622Z,93.10
2019-01-08T09:08:40.549Z,93.40
2019-01-08T09:11:10.169Z,93.20
2019-01-08T09:13:39.768Z,93.00
2019-01-08T09:16:09.388Z,92.80
2019-01-08T09:18:38.996Z,92.80
2019-01-08T09:21:08.618Z,92.80
2019-01-08T09:23:38.233Z,92.90
2019-01-08T09:26:07.908Z,93.10
2019-01-08T09:28:37.519Z,93.10
2019-01-08T09:31:15.133Z,93.10
2019-01-08T09:33:38.823Z,93.10
2019-01-08T09:36:08.500Z,93.20
2019-01-08T09:38:38.110Z,93.00
2019-01-08T09:41:08.310Z,92.80
2019-01-08T09:43:37.917Z,92.90
2019-01-08T09:46:07.548Z,92.80
2019-01-08T09:48:37.468Z,93.00
2019-01-08T09:51:07.112Z,93.10
2019-01-08T09:53:37.338Z,93.00
2019-01-08T09:56:06.958Z,93.00
2019-01-08T09:58:36.867Z,91.40
2019-01-08T10:01:06.810Z,91.60
2019-01-08T10:03:36.419Z,91.10
2019-01-08T10:06:06.033Z,90.70
2019-01-08T10:08:35.981Z,90.40
2019-01-08T10:11:07.382Z,88.70
2019-01-08T10:13:37.114Z,88.90
2019-01-08T10:16:06.772Z,89.30
2019-01-08T10:18:36.379Z,87.50
2019-01-08T10:21:06.244Z,87.60
2019-01-08T10:23:35.853Z,88.00
2019-01-08T10:26:05.797Z,87.60
2019-01-08T10:28:35.414Z,87.90
2019-01-08T10:31:05.021Z,88.10
2019-01-08T10:33:34.632Z,88.50
2019-01-08T10:36:04.242Z,88.70
2019-01-08T10:38:33.847Z,88.50
2019-01-08T10:41:03.469Z,88.60
2019-01-08T10:43:33.080Z,89.30
2019-01-08T10:46:03.006Z,88.60
2019-01-08T10:48:32.972Z,89.10
2019-01-08T10:51:02.954Z,88.60
2019-01-08T10:53:32.650Z,88.20
2019-01-08T10:56:02.325Z,87.50
2019-01-08T10:58:31.974Z,87.80
2019-01-08T11:01:01.951Z,88.00
2019-01-08T11:03:31.564Z,87.70
2019-01-08T11:06:01.226Z,88.50
2019-01-08T11:08:31.113Z,88.70
2019-01-08T11:11:00.899Z,88.80
2019-01-08T11:13:30.810Z,89.30
2019-01-08T11:16:00.481Z,90.20
2019-01-08T11:18:30.276Z,90.40
2019-01-08T11:21:00.084Z,91.00
2019-01-08T11:23:30.105Z,90.90
2019-01-08T11:25:59.844Z,91.10
2019-01-08T11:28:29.617Z,91.30
2019-01-08T11:30:59.348Z,91.10
2019-01-08T11:33:29.371Z,91.20
2019-01-08T11:35:59.034Z,90.70
2019-01-08T11:38:28.693Z,90.50
2019-01-08T11:40:58.599Z,90.30
2019-01-08T11:43:28.331Z,90.00
2019-01-08T11:45:58.328Z,90.00
2019-01-08T11:48:28.273Z,90.20
2019-01-08T11:50:57.930Z,89.50
2019-01-08T11:53:27.580Z,88.70
2019-01-08T11:55:58.988Z,88.60
2019-01-08T11:58:28.844Z,88.10
2019-01-08T12:00:58.533Z,87.80
2019-01-08T12:03:28.208Z,86.70
2019-01-08T12:05:57.845Z,86.40
2019-01-08T12:08:27.735Z,86.80
2019-01-08T12:10:57.892Z,86.20
2019-01-08T12:13:27.592Z,86.20
2019-01-08T12:15:57.302Z,85.90
2019-01-08T12:18:27.005Z,86.50
2019-01-08T12:20:56.708Z,86.30
2019-01-08T12:23:26.616Z,87.50
2019-01-08T12:25:56.644Z,87.70
2019-01-08T12:28:26.310Z,87.90
2019-01-08T12:30:56.058Z,88.50
2019-01-08T12:33:25.980Z,88.10
2019-01-08T12:35:56.223Z,88.50
2019-01-08T12:38:26.230Z,88.20
2019-01-08T12:40:56.281Z,88.20
2019-01-08T12:43:25.956Z,88.90
2019-01-08T12:45:55.684Z,88.90
2019-01-08T12:48:25.372Z,88.90
2019-01-08T12:50:55.106Z,89.90
2019-01-08T12:53:24.801Z,90.20
2019-01-08T12:55:54.444Z,90.60
2019-01-08T12:58:25.053Z,90.90
2019-01-08T13:00:54.974Z,90.80
2019-01-08T13:03:24.974Z,90.70
2019-01-08T13:05:54.640Z,91.30
2019-01-08T13:08:24.262Z,91.10
2019-01-08T13:10:54.269Z,91.10
2019-01-08T13:13:23.903Z,91.00
2019-01-08T13:15:53.580Z,90.60
2019-01-08T13:18:23.236Z,91.10
2019-01-08T13:20:52.907Z,90.10
2019-01-08T13:23:22.573Z,90.30
2019-01-08T13:25:52.226Z,90.00
2019-01-08T13:28:23.537Z,88.90
2019-01-08T13:30:53.438Z,88.80
2019-01-08T13:33:23.081Z,89.30
2019-01-08T13:35:53.188Z,89.40
2019-01-08T13:38:23.080Z,89.10
2019-01-08T13:40:52.816Z,88.40
2019-01-08T13:43:22.546Z,89.40
2019-01-08T13:45:52.272Z,87.80
2019-01-08T13:48:22.173Z,87.30
2019-01-08T13:50:51.833Z,87.40
2019-01-08T13:53:21.481Z,86.90
2019-01-08T13:55:51.498Z,87.50
2019-01-08T13:58:21.473Z,87.70
2019-01-08T14:00:51.257Z,88.20
2019-01-08T14:03:22.275Z,87.70
2019-01-08T14:05:51.974Z,87.80
2019-01-08T14:08:22.001Z,87.70
2019-01-08T14:10:56.480Z,87.90
2019-01-08T14:13:23.453Z,86.80
2019-01-08T14:15:53.383Z,87.00
2019-01-08T14:18:23.073Z,87.30
2019-01-08T14:20:52.738Z,87.40
2019-01-08T14:23:22.376Z,87.60
2019-01-08T14:25:52.023Z,87.20
2019-01-08T14:28:21.714Z,86.10
2019-01-08T14:30:51.380Z,85.30
2019-01-08T14:33:21.096Z,82.70
2019-01-08T14:35:51.090Z,83.70
2019-01-08T14:38:20.765Z,83.60
2019-01-08T14:40:50.696Z,82.40
2019-01-08T14:43:20.574Z,80.90
2019-01-08T14:45:50.327Z,80.40
2019-01-08T14:48:21.030Z,79.00
2019-01-08T14:50:50.705Z,77.20
2019-01-08T14:53:20.625Z,76.80
2019-01-08T14:55:50.270Z,75.70
2019-01-08T14:58:20.221Z,74.10
2019-01-08T15:00:50.099Z,74.10
2019-01-08T15:03:19.781Z,74.20
2019-01-08T15:05:49.722Z,73.30
2019-01-08T15:08:19.337Z,74.20
2019-01-08T15:10:49.489Z,74.30
2019-01-08T15:13:19.773Z,75.20
2019-01-08T15:15:49.388Z,76.00
2019-01-08T15:18:19.264Z,74.80
2019-01-08T15:20:48.912Z,75.70
2019-01-08T15:23:18.554Z,75.20
2019-01-08T15:25:48.250Z,76.20
2019-01-08T15:28:17.852Z,75.10
2019-01-08T15:30:47.456Z,75.70
2019-01-08T15:33:17.070Z,74.90
2019-01-08T15:35:46.687Z,76.00
2019-01-08T15:38:16.296Z,76.40
2019-01-08T15:40:45.903Z,76.80
2019-01-08T15:43:15.623Z,76.90
2019-01-08T15:45:45.220Z,76.60
2019-01-08T15:48:15.129Z,76.70
2019-01-08T15:50:44.738Z,77.10
2019-01-08T15:53:14.350Z,78.00
2019-01-08T15:55:43.961Z,78.40
2019-01-08T15:58:13.567Z,79.30
2019-01-08T16:00:43.175Z,79.00
2019-01-08T16:03:13.086Z,79.30
2019-01-08T16:05:42.694Z,79.60
2019-01-08T16:08:12.530Z,79.80
2019-01-08T16:10:43.109Z,80.10
2019-01-08T16:13:12.725Z,80.60
2019-01-08T16:15:42.405Z,81.40
2019-01-08T16:18:12.015Z,81.30
2019-01-08T16:20:41.618Z,81.70
2019-01-08T16:23:11.494Z,81.80
2019-01-08T16:25:41.105Z,82.20
2019-01-08T16:28:11.031Z,81.90
2019-01-08T16:30:40.632Z,81.80
2019-01-08T16:33:15.981Z,82.00
2019-01-08T16:35:41.561Z,82.90
2019-01-08T16:38:11.180Z,82.60
2019-01-08T16:40:40.785Z,82.50
2019-01-08T16:43:10.717Z,82.80
2019-01-08T16:45:40.311Z,82.30
2019-01-08T16:48:09.933Z,82.10
2019-01-08T16:50:39.953Z,82.00
2019-01-08T16:53:09.577Z,81.90
2019-01-08T16:55:39.173Z,81.60
2019-01-08T16:58:28.021Z,81.80
2019-01-08T17:00:57.642Z,80.50
2019-01-08T17:03:27.257Z,80.30
2019-01-08T17:05:56.936Z,80.30
2019-01-08T17:08:26.584Z,80.00
2019-01-08T17:10:56.195Z,79.60
2019-01-08T17:13:25.800Z,79.80
2019-01-08T17:15:55.417Z,80.00
2019-01-08T17:18:25.034Z,79.50
2019-01-08T17:20:54.641Z,78.90
2019-01-08T17:23:24.263Z,78.70
2019-01-08T17:25:54.690Z,78.40
2019-01-08T17:28:24.291Z,78.00
2019-01-08T17:30:53.906Z,77.90
2019-01-08T17:33:23.513Z,77.70
2019-01-08T17:35:53.443Z,78.30
2019-01-08T17:38:23.309Z,78.00
2019-01-08T17:40:52.925Z,78.20
2019-01-08T17:43:23.143Z,78.60
2019-01-08T17:45:52.750Z,78.50
2019-01-08T17:48:22.434Z,77.90
2019-01-08T17:50:53.515Z,78.10
2019-01-08T17:53:23.135Z,78.10
2019-01-08T17:55:53.066Z,77.90
2019-01-08T17:58:33.198Z,78.40
2019-01-08T18:01:15.322Z,78.10
2019-01-08T18:03:45.316Z,77.90
2019-01-08T18:06:15.020Z,78.50
2019-01-08T18:08:44.636Z,78.80
2019-01-08T18:11:14.258Z,78.40
2019-01-08T18:13:43.873Z,79.10
2019-01-08T18:16:13.865Z,79.80
2019-01-08T18:18:43.474Z,81.00
2019-01-08T18:21:14.262Z,82.00
2019-01-08T18:23:43.863Z,82.30
2019-01-08T18:26:13.481Z,82.20
2019-01-08T18:28:43.081Z,81.70
2019-01-08T18:31:12.954Z,81.50
2019-01-08T18:33:51.094Z,81.40
2019-01-08T18:36:14.644Z,80.60
2019-01-08T18:38:44.631Z,80.00
2019-01-08T18:41:14.541Z,80.20
2019-01-08T18:43:44.195Z,79.60
2019-01-08T18:46:13.822Z,79.50
2019-01-08T18:48:43.844Z,80.00
2019-01-08T18:51:13.798Z,80.50
2019-01-08T18:53:43.405Z,80.50
2019-01-08T18:56:13.156Z,80.60
2019-01-08T18:58:44.127Z,80.80
2019-01-08T19:01:13.753Z,81.50
2019-01-08T19:03:43.425Z,81.50
2019-01-08T19:06:13.089Z,81.80
2019-01-08T19:09:36.296Z,83.10
2019-01-08T19:12:11.302Z,83.70
2019-01-08T19:14:41.966Z,85.10
2019-01-08T19:17:12.974Z,85.40
2019-01-08T19:19:42.613Z,85.50
2019-01-08T19:22:12.286Z,84.50
2019-01-08T19:24:42.453Z,84.20
2019-01-08T19:27:12.337Z,84.00
2019-01-08T19:29:42.029Z,84.70
2019-01-08T19:32:11.648Z,84.60
2019-01-08T19:34:41.325Z,84.50
2019-01-08T19:37:11.317Z,85.00
2019-01-08T19:39:41.206Z,84.80
2019-01-08T19:42:11.117Z,85.00
2019-01-08T19:44:40.719Z,85.10
2019-01-08T19:47:10.716Z,85.30
2019-01-08T19:49:40.330Z,85.30
2019-01-08T19:52:09.936Z,85.30
2019-01-08T19:54:39.542Z,84.50
2019-01-08T19:57:09.150Z,84.00
2019-01-08T19:59:39.066Z,83.80
2019-01-08T20:02:08.675Z,83.70
2019-01-08T20:04:38.280Z,84.20
2019-01-08T20:07:07.897Z,84.30
2019-01-08T20:09:37.653Z,84.20
2019-01-08T20:12:07.273Z,84.30
2019-01-08T20:14:36.872Z,84.10
2019-01-08T20:17:06.574Z,83.90
2019-01-08T20:19:36.266Z,83.50
2019-01-08T20:22:05.877Z,83.20
2019-01-08T20:24:35.490Z,83.40
2019-01-08T20:27:05.175Z,83.00
2019-01-08T20:29:34.786Z,83.80
2019-01-08T20:32:05.462Z,83.10
2019-01-08T20:34:36.131Z,83.30
2019-01-08T20:37:05.740Z,82.90
2019-01-08T20:39:35.513Z,82.50
2019-01-08T20:42:05.403Z,83.50
2019-01-08T20:44:35.333Z,83.70
2019-01-08T20:47:04.954Z,84.60
2019-01-08T20:49:34.552Z,85.30
2019-01-08T20:52:04.169Z,85.50
2019-01-08T20:54:34.240Z,86.00
2019-01-08T20:57:08.881Z,86.30
2019-01-08T20:59:35.269Z,86.70
2019-01-08T21:02:05.134Z,87.40
2019-01-08T21:04:35.591Z,87.50
2019-01-08T21:07:05.538Z,87.30
2019-01-08T21:09:35.187Z,88.10
2019-01-08T21:12:04.882Z,87.40
2019-01-08T21:14:34.529Z,86.90
2019-01-08T21:17:04.153Z,86.40
2019-01-08T21:19:33.757Z,86.00
2019-01-08T21:22:03.494Z,86.20
2019-01-08T21:24:33.139Z,85.80
2019-01-08T21:27:02.746Z,86.80
2019-01-08T21:29:33.094Z,86.80
2019-01-08T21:32:02.705Z,86.80
2019-01-08T21:34:32.469Z,86.70
2019-01-08T21:37:02.158Z,86.30
2019-01-08T21:39:31.771Z,86.50
2019-01-08T21:42:01.645Z,85.80
2019-01-08T21:44:31.345Z,85.60
2019-01-08T21:47:01.297Z,85.10
2019-01-08T21:49:31.987Z,84.80
2019-01-08T21:52:02.606Z,84.30
2019-01-08T21:54:32.496Z,84.80
2019-01-08T21:57:02.812Z,85.20
2019-01-08T21:59:32.724Z,85.30
2019-01-08T22:02:02.618Z,85.70
2019-01-08T22:04:32.233Z,86.00
2019-01-08T22:07:01.866Z,86.70
2019-01-08T22:09:31.493Z,86.90
2019-01-08T22:12:01.389Z,87.60
2019-01-08T22:14:31.087Z,87.50
2019-01-08T22:17:00.958Z,88.00
2019-01-08T22:19:30.709Z,88.20
2019-01-08T22:22:00.331Z,88.90
2019-01-08T22:24:30.070Z,88.30
2019-01-08T22:26:59.672Z,88.20
2019-01-08T22:29:29.404Z,88.70
2019-01-08T22:31:59.004Z,88.40
2019-01-08T22:34:29.056Z,87.90
2019-01-08T22:36:58.941Z,87.80
2019-01-08T22:39:28.648Z,88.20
2019-01-08T22:41:58.529Z,87.90
2019-01-08T22:44:28.179Z,87.40
2019-01-08T22:46:57.856Z,87.40
2019-01-08T22:49:27.640Z,87.00
2019-01-08T22:51:57.355Z,87.50
2019-01-08T22:54:26.967Z,87.40
2019-01-08T22:56:56.577Z,88.20
2019-01-08T22:59:26.221Z,89.40
2019-01-08T23:01:55.925Z,89.40
2019-01-08T23:04:25.536Z,90.20
2019-01-08T23:06:55.224Z,90.30
2019-01-08T23:09:25.070Z,90.30
2019-01-08T23:11:54.965Z,90.30
2019-01-08T23:14:24.684Z,90.40
2019-01-08T23:16:54.296Z,90.50
2019-01-08T23:19:24.290Z,91.00
2019-01-08T23:21:53.902Z,90.80
2019-01-08T23:24:24.432Z,91.00
2019-01-08T23:26:54.345Z,91.00
2019-01-08T23:29:24.425Z,91.30
2019-01-08T23:31:54.493Z,91.30
2019-01-08T23:34:24.776Z,91.20
2019-01-08T23:36:54.537Z,90.70
2019-01-08T23:39:24.448Z,91.20
2019-01-08T23:41:54.085Z,91.20
2019-01-08T23:44:24.489Z,91.40
2019-01-08T23:46:54.097Z,91.20
2019-01-08T23:49:24.638Z,90.90
2019-01-08T23:52:03.386Z,90.80
2019-01-08T23:54:35.127Z,90.80
2019-01-08T23:57:05.237Z,90.70
2019-01-08T23:59:34.897Z,90.60
